sensor_id;sensor_type;location;lat;lon;timestamp;pressure;altitude;pressure_sealevel;temperature;humidity
80401;BME280;69727;53.132;8.230;2024-02-26T00:00:29;100352.34;;;3.61;90.37
80401;BME280;69727;53.132;8.230;2024-02-26T00:02:55;100357.66;;;3.61;90.69
80401;BME280;69727;53.132;8.230;2024-02-26T00:05:20;100358.97;;;3.57;90.48
80401;BME280;69727;53.132;8.230;2024-02-26T00:07:46;100356.63;;;3.53;90.62
80401;BME280;69727;53.132;8.230;2024-02-26T00:10:13;100350.84;;;3.50;90.59
80401;BME280;69727;53.132;8.230;2024-02-26T00:12:38;100349.31;;;3.47;90.87
80401;BME280;69727;53.132;8.230;2024-02-26T00:15:05;100348.81;;;3.44;90.57
80401;BME280;69727;53.132;8.230;2024-02-26T00:17:31;100343.50;;;3.36;90.64
80401;BME280;69727;53.132;8.230;2024-02-26T00:19:56;100353.91;;;3.37;90.49
80401;BME280;69727;53.132;8.230;2024-02-26T00:22:22;100356.91;;;3.34;90.91
80401;BME280;69727;53.132;8.230;2024-02-26T00:24:47;100347.78;;;3.29;90.67
80401;BME280;69727;53.132;8.230;2024-02-26T00:27:13;100355.06;;;3.27;90.73
80401;BME280;69727;53.132;8.230;2024-02-26T00:29:38;100354.38;;;3.25;90.94
80401;BME280;69727;53.132;8.230;2024-02-26T00:32:04;100350.25;;;3.22;90.98
80401;BME280;69727;53.132;8.230;2024-02-26T00:34:29;100358.66;;;3.17;90.45
80401;BME280;69727;53.132;8.230;2024-02-26T00:36:55;100355.81;;;3.11;91.17
80401;BME280;69727;53.132;8.230;2024-02-26T00:39:20;100355.47;;;3.06;91.00
80401;BME280;69727;53.132;8.230;2024-02-26T00:41:45;100353.97;;;3.03;90.79
80401;BME280;69727;53.132;8.230;2024-02-26T00:44:11;100352.63;;;2.99;90.93
80401;BME280;69727;53.132;8.230;2024-02-26T00:46:36;100351.78;;;2.99;90.96
80401;BME280;69727;53.132;8.230;2024-02-26T00:49:02;100350.97;;;2.98;91.27
80401;BME280;69727;53.132;8.230;2024-02-26T00:51:28;100350.28;;;2.96;91.11
80401;BME280;69727;53.132;8.230;2024-02-26T00:53:54;100343.50;;;2.94;91.30
80401;BME280;69727;53.132;8.230;2024-02-26T00:56:21;100345.13;;;2.95;91.41
80401;BME280;69727;53.132;8.230;2024-02-26T00:58:46;100345.13;;;2.95;91.80
80401;BME280;69727;53.132;8.230;2024-02-26T01:01:11;100355.72;;;2.95;91.74
80401;BME280;69727;53.132;8.230;2024-02-26T01:03:37;100361.72;;;2.97;91.82
80401;BME280;69727;53.132;8.230;2024-02-26T01:06:02;100358.38;;;2.95;91.92
80401;BME280;69727;53.132;8.230;2024-02-26T01:08:28;100354.94;;;2.94;91.60
80401;BME280;69727;53.132;8.230;2024-02-26T01:10:53;100352.72;;;2.90;92.05
80401;BME280;69727;53.132;8.230;2024-02-26T01:13:19;100359.00;;;2.89;92.45
80401;BME280;69727;53.132;8.230;2024-02-26T01:15:44;100356.22;;;2.90;91.89
80401;BME280;69727;53.132;8.230;2024-02-26T01:18:09;100368.97;;;2.87;92.28
80401;BME280;69727;53.132;8.230;2024-02-26T01:20:35;100364.66;;;2.86;92.10
80401;BME280;69727;53.132;8.230;2024-02-26T01:23:00;100363.28;;;2.82;92.23
80401;BME280;69727;53.132;8.230;2024-02-26T01:25:26;100355.66;;;2.79;91.99
80401;BME280;69727;53.132;8.230;2024-02-26T01:27:52;100368.25;;;2.76;92.37
80401;BME280;69727;53.132;8.230;2024-02-26T01:30:17;100361.81;;;2.79;92.12
80401;BME280;69727;53.132;8.230;2024-02-26T01:32:43;100356.66;;;2.78;92.07
80401;BME280;69727;53.132;8.230;2024-02-26T01:35:08;100357.78;;;2.75;92.03
80401;BME280;69727;53.132;8.230;2024-02-26T01:37:36;100360.59;;;2.73;92.40
80401;BME280;69727;53.132;8.230;2024-02-26T01:40:02;100350.59;;;2.67;92.22
80401;BME280;69727;53.132;8.230;2024-02-26T01:42:29;100351.59;;;2.66;92.45
80401;BME280;69727;53.132;8.230;2024-02-26T01:44:56;100334.69;;;2.59;92.35
80401;BME280;69727;53.132;8.230;2024-02-26T01:47:22;100347.59;;;2.62;92.96
80401;BME280;69727;53.132;8.230;2024-02-26T01:49:47;100350.41;;;2.61;92.86
80401;BME280;69727;53.132;8.230;2024-02-26T01:52:13;100354.56;;;2.63;93.20
80401;BME280;69727;53.132;8.230;2024-02-26T01:54:39;100362.66;;;2.62;93.19
80401;BME280;69727;53.132;8.230;2024-02-26T01:57:06;100362.72;;;2.70;92.51
80401;BME280;69727;53.132;8.230;2024-02-26T01:59:34;100356.88;;;2.58;92.92
80401;BME280;69727;53.132;8.230;2024-02-26T02:02:01;100356.53;;;2.61;92.73
80401;BME280;69727;53.132;8.230;2024-02-26T02:04:29;100354.72;;;2.62;93.13
80401;BME280;69727;53.132;8.230;2024-02-26T02:06:54;100355.88;;;2.59;92.82
80401;BME280;69727;53.132;8.230;2024-02-26T02:09:20;100354.22;;;2.58;92.66
80401;BME280;69727;53.132;8.230;2024-02-26T02:11:48;100372.38;;;2.53;92.69
80401;BME280;69727;53.132;8.230;2024-02-26T02:14:14;100370.75;;;2.52;92.91
80401;BME280;69727;53.132;8.230;2024-02-26T02:16:40;100358.25;;;2.45;92.82
80401;BME280;69727;53.132;8.230;2024-02-26T02:19:05;100361.56;;;2.47;92.89
80401;BME280;69727;53.132;8.230;2024-02-26T02:21:31;100364.53;;;2.44;92.83
80401;BME280;69727;53.132;8.230;2024-02-26T02:23:56;100360.91;;;2.45;92.85
80401;BME280;69727;53.132;8.230;2024-02-26T02:26:22;100371.19;;;2.48;93.29
80401;BME280;69727;53.132;8.230;2024-02-26T02:28:48;100367.84;;;2.46;93.08
80401;BME280;69727;53.132;8.230;2024-02-26T02:31:15;100363.72;;;2.43;93.14
80401;BME280;69727;53.132;8.230;2024-02-26T02:33:40;100371.81;;;2.42;92.87
80401;BME280;69727;53.132;8.230;2024-02-26T02:36:06;100371.31;;;2.38;93.25
80401;BME280;69727;53.132;8.230;2024-02-26T02:38:36;100375.91;;;2.36;93.01
80401;BME280;69727;53.132;8.230;2024-02-26T02:41:01;100372.44;;;2.35;92.84
80401;BME280;69727;53.132;8.230;2024-02-26T02:43:27;100381.66;;;2.31;93.11
80401;BME280;69727;53.132;8.230;2024-02-26T02:45:52;100382.72;;;2.38;93.41
80401;BME280;69727;53.132;8.230;2024-02-26T02:48:17;100383.19;;;2.34;93.17
80401;BME280;69727;53.132;8.230;2024-02-26T02:50:43;100384.00;;;2.34;93.33
80401;BME280;69727;53.132;8.230;2024-02-26T02:53:08;100390.97;;;2.35;93.08
80401;BME280;69727;53.132;8.230;2024-02-26T02:55:34;100381.50;;;2.33;93.35
80401;BME280;69727;53.132;8.230;2024-02-26T02:57:59;100389.84;;;2.38;93.40
80401;BME280;69727;53.132;8.230;2024-02-26T03:00:24;100381.00;;;2.29;93.42
80401;BME280;69727;53.132;8.230;2024-02-26T03:02:50;100387.13;;;2.30;93.68
80401;BME280;69727;53.132;8.230;2024-02-26T03:05:15;100380.00;;;2.30;93.83
80401;BME280;69727;53.132;8.230;2024-02-26T03:07:41;100382.97;;;2.27;93.38
80401;BME280;69727;53.132;8.230;2024-02-26T03:10:07;100385.97;;;2.32;93.54
80401;BME280;69727;53.132;8.230;2024-02-26T03:12:33;100386.88;;;2.41;93.45
80401;BME280;69727;53.132;8.230;2024-02-26T03:14:59;100398.44;;;2.40;93.19
80401;BME280;69727;53.132;8.230;2024-02-26T03:17:30;100398.84;;;2.45;93.05
80401;BME280;69727;53.132;8.230;2024-02-26T03:19:56;100410.94;;;2.48;92.82
80401;BME280;69727;53.132;8.230;2024-02-26T03:22:21;100416.94;;;2.50;92.46
80401;BME280;69727;53.132;8.230;2024-02-26T03:24:47;100419.03;;;2.46;92.50
80401;BME280;69727;53.132;8.230;2024-02-26T03:27:13;100420.81;;;2.38;92.68
80401;BME280;69727;53.132;8.230;2024-02-26T03:29:38;100426.19;;;2.28;92.52
80401;BME280;69727;53.132;8.230;2024-02-26T03:32:04;100424.97;;;2.22;92.67
80401;BME280;69727;53.132;8.230;2024-02-26T03:34:31;100439.88;;;2.23;92.97
80401;BME280;69727;53.132;8.230;2024-02-26T03:36:59;100444.03;;;2.26;92.88
80401;BME280;69727;53.132;8.230;2024-02-26T03:39:25;100442.31;;;2.17;92.77
80401;BME280;69727;53.132;8.230;2024-02-26T03:41:50;100449.25;;;2.18;92.85
80401;BME280;69727;53.132;8.230;2024-02-26T03:44:15;100447.75;;;2.15;92.95
80401;BME280;69727;53.132;8.230;2024-02-26T03:46:41;100448.72;;;2.14;93.05
80401;BME280;69727;53.132;8.230;2024-02-26T03:49:08;100447.75;;;2.15;92.99
80401;BME280;69727;53.132;8.230;2024-02-26T03:51:33;100451.25;;;2.16;92.87
80401;BME280;69727;53.132;8.230;2024-02-26T03:53:59;100453.06;;;2.15;93.30
80401;BME280;69727;53.132;8.230;2024-02-26T03:56:25;100448.28;;;2.19;93.17
80401;BME280;69727;53.132;8.230;2024-02-26T03:58:51;100443.81;;;2.19;93.47
80401;BME280;69727;53.132;8.230;2024-02-26T04:01:16;100453.56;;;2.19;93.31
80401;BME280;69727;53.132;8.230;2024-02-26T04:03:41;100458.03;;;2.18;93.51
80401;BME280;69727;53.132;8.230;2024-02-26T04:06:11;100465.97;;;2.18;93.81
80401;BME280;69727;53.132;8.230;2024-02-26T04:08:37;100467.66;;;2.19;93.63
80401;BME280;69727;53.132;8.230;2024-02-26T04:11:03;100464.91;;;2.11;94.43
80401;BME280;69727;53.132;8.230;2024-02-26T04:13:35;100466.94;;;2.17;94.07
80401;BME280;69727;53.132;8.230;2024-02-26T04:16:01;100458.03;;;2.18;94.25
80401;BME280;69727;53.132;8.230;2024-02-26T04:18:27;100459.00;;;2.17;94.20
80401;BME280;69727;53.132;8.230;2024-02-26T04:20:53;100467.34;;;2.22;94.51
80401;BME280;69727;53.132;8.230;2024-02-26T04:23:19;100476.66;;;2.26;94.24
80401;BME280;69727;53.132;8.230;2024-02-26T04:25:44;100481.53;;;2.31;94.50
80401;BME280;69727;53.132;8.230;2024-02-26T04:28:10;100482.66;;;2.28;94.13
80401;BME280;69727;53.132;8.230;2024-02-26T04:30:36;100480.22;;;2.35;94.40
80401;BME280;69727;53.132;8.230;2024-02-26T04:33:02;100485.38;;;2.36;94.23
80401;BME280;69727;53.132;8.230;2024-02-26T04:35:27;100474.22;;;2.33;94.23
80401;BME280;69727;53.132;8.230;2024-02-26T04:37:53;100481.78;;;2.46;94.21
80401;BME280;69727;53.132;8.230;2024-02-26T04:40:18;100486.59;;;2.42;94.00
80401;BME280;69727;53.132;8.230;2024-02-26T04:42:43;100484.69;;;2.34;94.54
80401;BME280;69727;53.132;8.230;2024-02-26T04:45:09;100498.16;;;2.41;95.02
80401;BME280;69727;53.132;8.230;2024-02-26T04:47:34;100497.09;;;2.34;95.14
80401;BME280;69727;53.132;8.230;2024-02-26T04:50:00;100493.31;;;2.36;95.09
80401;BME280;69727;53.132;8.230;2024-02-26T04:52:25;100494.25;;;2.45;94.53
80401;BME280;69727;53.132;8.230;2024-02-26T04:54:50;100497.88;;;2.44;94.32
80401;BME280;69727;53.132;8.230;2024-02-26T04:57:16;100501.50;;;2.43;94.46
80401;BME280;69727;53.132;8.230;2024-02-26T04:59:44;100513.31;;;2.49;94.88
80401;BME280;69727;53.132;8.230;2024-02-26T05:02:10;100515.44;;;2.45;94.69
80401;BME280;69727;53.132;8.230;2024-02-26T05:04:35;100522.56;;;2.45;94.22
80401;BME280;69727;53.132;8.230;2024-02-26T05:07:01;100525.72;;;2.48;94.14
80401;BME280;69727;53.132;8.230;2024-02-26T05:09:26;100531.84;;;2.49;93.43
80401;BME280;69727;53.132;8.230;2024-02-26T05:11:51;100527.63;;;2.56;93.25
80401;BME280;69727;53.132;8.230;2024-02-26T05:14:17;100532.97;;;2.46;92.68
80401;BME280;69727;53.132;8.230;2024-02-26T05:16:42;100527.06;;;2.34;93.11
80401;BME280;69727;53.132;8.230;2024-02-26T05:19:08;100538.78;;;2.32;93.37
80401;BME280;69727;53.132;8.230;2024-02-26T05:21:33;100534.88;;;2.36;92.79
80401;BME280;69727;53.132;8.230;2024-02-26T05:23:59;100542.69;;;2.38;92.86
80401;BME280;69727;53.132;8.230;2024-02-26T05:26:24;100527.00;;;2.26;93.34
80401;BME280;69727;53.132;8.230;2024-02-26T05:28:50;100540.03;;;2.38;92.96
80401;BME280;69727;53.132;8.230;2024-02-26T05:31:16;100539.72;;;2.41;92.22
80401;BME280;69727;53.132;8.230;2024-02-26T05:33:42;100543.66;;;2.36;92.46
80401;BME280;69727;53.132;8.230;2024-02-26T05:36:07;100556.59;;;2.40;92.32
80401;BME280;69727;53.132;8.230;2024-02-26T05:38:33;100552.59;;;2.35;92.31
80401;BME280;69727;53.132;8.230;2024-02-26T05:40:59;100549.34;;;2.42;92.09
80401;BME280;69727;53.132;8.230;2024-02-26T05:43:25;100555.63;;;2.41;92.26
80401;BME280;69727;53.132;8.230;2024-02-26T05:45:51;100555.19;;;2.45;92.69
80401;BME280;69727;53.132;8.230;2024-02-26T05:48:16;100554.50;;;2.43;92.42
80401;BME280;69727;53.132;8.230;2024-02-26T05:50:41;100561.63;;;2.43;92.32
80401;BME280;69727;53.132;8.230;2024-02-26T05:53:07;100558.50;;;2.47;92.70
80401;BME280;69727;53.132;8.230;2024-02-26T05:55:32;100563.44;;;2.42;92.90
80401;BME280;69727;53.132;8.230;2024-02-26T05:57:58;100551.69;;;2.45;93.10
80401;BME280;69727;53.132;8.230;2024-02-26T06:00:23;100554.41;;;2.35;93.42
80401;BME280;69727;53.132;8.230;2024-02-26T06:02:48;100551.94;;;2.51;93.86
80401;BME280;69727;53.132;8.230;2024-02-26T06:05:14;100564.88;;;2.54;94.14
80401;BME280;69727;53.132;8.230;2024-02-26T06:07:39;100563.06;;;2.55;93.43
80401;BME280;69727;53.132;8.230;2024-02-26T06:10:05;100566.44;;;2.47;93.07
80401;BME280;69727;53.132;8.230;2024-02-26T06:12:31;100565.63;;;2.47;93.62
80401;BME280;69727;53.132;8.230;2024-02-26T06:14:56;100574.13;;;2.50;92.81
80401;BME280;69727;53.132;8.230;2024-02-26T06:17:22;100581.84;;;2.44;93.24
80401;BME280;69727;53.132;8.230;2024-02-26T06:19:47;100588.63;;;2.46;92.96
80401;BME280;69727;53.132;8.230;2024-02-26T06:22:13;100586.59;;;2.40;92.88
80401;BME280;69727;53.132;8.230;2024-02-26T06:24:39;100587.28;;;2.42;92.79
80401;BME280;69727;53.132;8.230;2024-02-26T06:27:04;100587.41;;;2.41;92.84
80401;BME280;69727;53.132;8.230;2024-02-26T06:29:29;100593.03;;;2.38;92.92
80401;BME280;69727;53.132;8.230;2024-02-26T06:31:55;100596.91;;;2.43;92.82
80401;BME280;69727;53.132;8.230;2024-02-26T06:34:20;100604.84;;;2.43;92.54
80401;BME280;69727;53.132;8.230;2024-02-26T06:36:46;100598.00;;;2.41;92.46
80401;BME280;69727;53.132;8.230;2024-02-26T06:39:12;100589.38;;;2.38;93.04
80401;BME280;69727;53.132;8.230;2024-02-26T06:41:38;100601.44;;;2.51;91.97
80401;BME280;69727;53.132;8.230;2024-02-26T06:44:04;100596.06;;;2.43;92.30
80401;BME280;69727;53.132;8.230;2024-02-26T06:46:30;100608.63;;;2.41;91.96
80401;BME280;69727;53.132;8.230;2024-02-26T06:48:56;100607.63;;;2.42;91.08
80401;BME280;69727;53.132;8.230;2024-02-26T06:51:22;100606.94;;;2.40;91.45
80401;BME280;69727;53.132;8.230;2024-02-26T06:53:47;100609.06;;;2.36;91.62
80401;BME280;69727;53.132;8.230;2024-02-26T06:56:13;100611.84;;;2.34;91.72
80401;BME280;69727;53.132;8.230;2024-02-26T06:58:38;100619.53;;;2.38;91.22
80401;BME280;69727;53.132;8.230;2024-02-26T07:01:04;100626.31;;;2.40;91.46
80401;BME280;69727;53.132;8.230;2024-02-26T07:03:29;100623.91;;;2.47;91.17
80401;BME280;69727;53.132;8.230;2024-02-26T07:05:55;100630.38;;;2.44;91.21
80401;BME280;69727;53.132;8.230;2024-02-26T07:08:21;100632.84;;;2.46;91.26
80401;BME280;69727;53.132;8.230;2024-02-26T07:10:46;100634.69;;;2.45;91.13
80401;BME280;69727;53.132;8.230;2024-02-26T07:13:12;100638.16;;;2.46;91.52
80401;BME280;69727;53.132;8.230;2024-02-26T07:15:37;100641.34;;;2.49;91.16
80401;BME280;69727;53.132;8.230;2024-02-26T07:18:03;100645.91;;;2.57;90.90
80401;BME280;69727;53.132;8.230;2024-02-26T07:20:29;100644.97;;;2.48;90.96
80401;BME280;69727;53.132;8.230;2024-02-26T07:22:55;100656.88;;;2.62;91.24
80401;BME280;69727;53.132;8.230;2024-02-26T07:25:21;100655.16;;;2.70;90.86
80401;BME280;69727;53.132;8.230;2024-02-26T07:27:46;100663.41;;;2.67;90.93
80401;BME280;69727;53.132;8.230;2024-02-26T07:30:12;100664.94;;;2.70;90.87
80401;BME280;69727;53.132;8.230;2024-02-26T07:32:38;100670.75;;;2.73;91.25
80401;BME280;69727;53.132;8.230;2024-02-26T07:35:03;100675.78;;;2.76;90.61
80401;BME280;69727;53.132;8.230;2024-02-26T07:37:29;100680.06;;;2.87;89.94
80401;BME280;69727;53.132;8.230;2024-02-26T07:39:55;100680.34;;;2.84;90.37
80401;BME280;69727;53.132;8.230;2024-02-26T07:42:20;100677.22;;;2.89;90.27
80401;BME280;69727;53.132;8.230;2024-02-26T07:44:45;100682.69;;;2.87;90.47
80401;BME280;69727;53.132;8.230;2024-02-26T07:47:11;100683.78;;;2.94;90.06
80401;BME280;69727;53.132;8.230;2024-02-26T07:49:36;100676.56;;;2.87;90.00
80401;BME280;69727;53.132;8.230;2024-02-26T07:52:01;100671.91;;;2.89;90.36
80401;BME280;69727;53.132;8.230;2024-02-26T07:54:27;100673.53;;;2.99;89.69
80401;BME280;69727;53.132;8.230;2024-02-26T07:56:52;100674.66;;;2.97;89.44
80401;BME280;69727;53.132;8.230;2024-02-26T07:59:18;100679.13;;;2.96;89.48
80401;BME280;69727;53.132;8.230;2024-02-26T08:01:43;100671.41;;;3.03;89.71
80401;BME280;69727;53.132;8.230;2024-02-26T08:04:09;100671.81;;;3.08;89.96
80401;BME280;69727;53.132;8.230;2024-02-26T08:06:34;100670.22;;;3.15;89.38
80401;BME280;69727;53.132;8.230;2024-02-26T08:09:00;100674.97;;;3.11;89.39
80401;BME280;69727;53.132;8.230;2024-02-26T08:11:25;100672.19;;;3.13;89.28
80401;BME280;69727;53.132;8.230;2024-02-26T08:13:51;100675.44;;;3.07;89.14
80401;BME280;69727;53.132;8.230;2024-02-26T08:16:16;100680.13;;;3.13;89.09
80401;BME280;69727;53.132;8.230;2024-02-26T08:18:44;100680.81;;;3.15;89.57
80401;BME280;69727;53.132;8.230;2024-02-26T08:21:10;100686.19;;;3.23;89.26
80401;BME280;69727;53.132;8.230;2024-02-26T08:23:35;100690.97;;;3.20;89.42
80401;BME280;69727;53.132;8.230;2024-02-26T08:26:00;100700.91;;;3.35;89.31
80401;BME280;69727;53.132;8.230;2024-02-26T08:28:26;100698.47;;;3.24;89.17
80401;BME280;69727;53.132;8.230;2024-02-26T08:30:51;100704.91;;;3.39;89.08
80401;BME280;69727;53.132;8.230;2024-02-26T08:33:17;100699.09;;;3.36;88.36
80401;BME280;69727;53.132;8.230;2024-02-26T08:35:42;100709.25;;;3.40;88.80
80401;BME280;69727;53.132;8.230;2024-02-26T08:38:08;100704.44;;;3.44;89.00
80401;BME280;69727;53.132;8.230;2024-02-26T08:40:33;100705.72;;;3.58;88.87
80401;BME280;69727;53.132;8.230;2024-02-26T08:42:58;100714.16;;;3.53;88.58
80401;BME280;69727;53.132;8.230;2024-02-26T08:45:24;100710.22;;;3.57;88.54
80401;BME280;69727;53.132;8.230;2024-02-26T08:47:51;100714.22;;;3.61;88.33
80401;BME280;69727;53.132;8.230;2024-02-26T08:50:17;100717.56;;;3.63;88.74
80401;BME280;69727;53.132;8.230;2024-02-26T08:52:42;100716.94;;;3.69;88.34
80401;BME280;69727;53.132;8.230;2024-02-26T08:55:08;100730.09;;;3.71;88.47
80401;BME280;69727;53.132;8.230;2024-02-26T08:57:34;100722.41;;;3.68;88.50
80401;BME280;69727;53.132;8.230;2024-02-26T09:00:02;100727.94;;;3.74;88.35
80401;BME280;69727;53.132;8.230;2024-02-26T09:02:28;100727.72;;;3.85;88.32
80401;BME280;69727;53.132;8.230;2024-02-26T09:04:53;100735.19;;;3.90;87.81
80401;BME280;69727;53.132;8.230;2024-02-26T09:07:20;100738.38;;;3.93;87.70
80401;BME280;69727;53.132;8.230;2024-02-26T09:09:46;100732.59;;;3.98;87.71
80401;BME280;69727;53.132;8.230;2024-02-26T09:12:11;100735.84;;;4.10;87.82
80401;BME280;69727;53.132;8.230;2024-02-26T09:14:37;100742.88;;;4.19;86.84
80401;BME280;69727;53.132;8.230;2024-02-26T09:17:02;100743.09;;;4.25;86.78
80401;BME280;69727;53.132;8.230;2024-02-26T09:19:28;100740.72;;;4.22;86.41
80401;BME280;69727;53.132;8.230;2024-02-26T09:21:54;100746.25;;;4.29;86.01
80401;BME280;69727;53.132;8.230;2024-02-26T09:24:23;100750.28;;;4.33;86.30
80401;BME280;69727;53.132;8.230;2024-02-26T09:26:48;100762.09;;;4.39;85.67
80401;BME280;69727;53.132;8.230;2024-02-26T09:29:14;100764.06;;;4.37;86.08
80401;BME280;69727;53.132;8.230;2024-02-26T09:31:39;100763.63;;;4.41;85.54
80401;BME280;69727;53.132;8.230;2024-02-26T09:34:06;100762.09;;;4.39;85.92
80401;BME280;69727;53.132;8.230;2024-02-26T09:36:33;100764.25;;;4.43;85.71
80401;BME280;69727;53.132;8.230;2024-02-26T09:38:58;100770.13;;;4.47;85.25
80401;BME280;69727;53.132;8.230;2024-02-26T09:41:29;100771.44;;;4.51;85.63
80401;BME280;69727;53.132;8.230;2024-02-26T09:43:57;100769.16;;;4.56;85.52
80401;BME280;69727;53.132;8.230;2024-02-26T09:46:27;100769.56;;;4.69;85.63
80401;BME280;69727;53.132;8.230;2024-02-26T09:48:53;100770.91;;;4.73;85.21
80401;BME280;69727;53.132;8.230;2024-02-26T09:51:19;100774.44;;;4.82;84.96
80401;BME280;69727;53.132;8.230;2024-02-26T09:53:51;100772.63;;;4.82;85.11
80401;BME280;69727;53.132;8.230;2024-02-26T09:56:17;100778.63;;;4.92;84.55
80401;BME280;69727;53.132;8.230;2024-02-26T09:58:43;100786.16;;;5.05;84.61
80401;BME280;69727;53.132;8.230;2024-02-26T10:01:13;100789.19;;;5.10;84.17
80401;BME280;69727;53.132;8.230;2024-02-26T10:03:41;100794.53;;;5.26;84.09
80401;BME280;69727;53.132;8.230;2024-02-26T10:06:16;100789.75;;;5.38;84.06
80401;BME280;69727;53.132;8.230;2024-02-26T10:08:43;100791.75;;;5.36;83.20
80401;BME280;69727;53.132;8.230;2024-02-26T10:11:08;100792.75;;;5.43;83.01
80401;BME280;69727;53.132;8.230;2024-02-26T10:13:35;100798.25;;;5.49;83.14
80401;BME280;69727;53.132;8.230;2024-02-26T10:16:01;100800.44;;;5.62;82.38
80401;BME280;69727;53.132;8.230;2024-02-26T10:18:53;100811.44;;;5.59;82.58
80401;BME280;69727;53.132;8.230;2024-02-26T10:21:22;100804.78;;;5.63;82.42
80401;BME280;69727;53.132;8.230;2024-02-26T10:23:49;100812.44;;;5.58;82.49
80401;BME280;69727;53.132;8.230;2024-02-26T10:26:16;100804.94;;;5.62;82.43
80401;BME280;69727;53.132;8.230;2024-02-26T10:28:43;100807.28;;;5.65;82.35
80401;BME280;69727;53.132;8.230;2024-02-26T10:31:09;100809.44;;;5.61;82.25
80401;BME280;69727;53.132;8.230;2024-02-26T10:33:36;100819.94;;;5.63;82.33
80401;BME280;69727;53.132;8.230;2024-02-26T10:36:06;100819.44;;;5.67;82.33
80401;BME280;69727;53.132;8.230;2024-02-26T10:38:33;100822.28;;;5.82;81.94
80401;BME280;69727;53.132;8.230;2024-02-26T10:40:59;100825.13;;;5.80;81.80
80401;BME280;69727;53.132;8.230;2024-02-26T10:43:27;100810.00;;;5.89;81.47
80401;BME280;69727;53.132;8.230;2024-02-26T10:45:55;100822.13;;;5.83;81.78
80401;BME280;69727;53.132;8.230;2024-02-26T10:48:21;100819.44;;;5.83;81.58
80401;BME280;69727;53.132;8.230;2024-02-26T10:50:47;100822.78;;;5.85;81.17
80401;BME280;69727;53.132;8.230;2024-02-26T10:53:16;100827.31;;;5.93;81.70
80401;BME280;69727;53.132;8.230;2024-02-26T10:55:45;100830.31;;;5.98;81.03
80401;BME280;69727;53.132;8.230;2024-02-26T10:58:12;100826.50;;;5.93;81.11
80401;BME280;69727;53.132;8.230;2024-02-26T11:00:39;100830.16;;;6.08;81.30
80401;BME280;69727;53.132;8.230;2024-02-26T11:03:05;100840.31;;;6.20;80.80
80401;BME280;69727;53.132;8.230;2024-02-26T11:05:33;100843.66;;;6.14;80.51
80401;BME280;69727;53.132;8.230;2024-02-26T11:08:00;100838.50;;;6.21;80.58
80401;BME280;69727;53.132;8.230;2024-02-26T11:10:29;100840.31;;;6.20;80.20
80401;BME280;69727;53.132;8.230;2024-02-26T11:12:56;100850.31;;;6.35;79.91
80401;BME280;69727;53.132;8.230;2024-02-26T11:15:32;100844.66;;;6.38;80.14
80401;BME280;69727;53.132;8.230;2024-02-26T11:17:59;100847.81;;;6.41;79.43
80401;BME280;69727;53.132;8.230;2024-02-26T11:20:28;100844.31;;;6.41;79.62
80401;BME280;69727;53.132;8.230;2024-02-26T11:22:54;100850.31;;;6.35;79.53
80401;BME280;69727;53.132;8.230;2024-02-26T11:25:19;100846.31;;;6.39;79.40
80401;BME280;69727;53.132;8.230;2024-02-26T11:27:55;100851.31;;;6.42;79.56
80401;BME280;69727;53.132;8.230;2024-02-26T11:30:29;100854.50;;;6.37;79.55
80401;BME280;69727;53.132;8.230;2024-02-26T11:32:56;100856.50;;;6.35;79.22
80401;BME280;69727;53.132;8.230;2024-02-26T11:35:23;100855.97;;;6.40;79.58
80401;BME280;69727;53.132;8.230;2024-02-26T11:37:55;100860.47;;;6.47;79.09
80401;BME280;69727;53.132;8.230;2024-02-26T11:40:25;100856.44;;;6.59;78.67
80401;BME280;69727;53.132;8.230;2024-02-26T11:42:54;100865.28;;;6.52;79.08
80401;BME280;69727;53.132;8.230;2024-02-26T11:45:47;100863.44;;;6.52;78.91
80401;BME280;69727;53.132;8.230;2024-02-26T11:48:21;100865.47;;;6.58;79.55
80401;BME280;69727;53.132;8.230;2024-02-26T11:50:54;100864.28;;;6.61;79.00
80401;BME280;69727;53.132;8.230;2024-02-26T11:55:46;100867.47;;;6.64;78.53
80401;BME280;69727;53.132;8.230;2024-02-26T11:58:11;100862.75;;;6.66;78.99
80401;BME280;69727;53.132;8.230;2024-02-26T12:00:40;100864.59;;;6.66;79.20
80401;BME280;69727;53.132;8.230;2024-02-26T12:03:05;100863.75;;;6.74;78.77
80401;BME280;69727;53.132;8.230;2024-02-26T12:05:34;100868.22;;;6.89;78.64
80401;BME280;69727;53.132;8.230;2024-02-26T12:08:05;100875.22;;;6.90;77.89
80401;BME280;69727;53.132;8.230;2024-02-26T12:10:41;100865.69;;;6.96;77.78
80401;BME280;69727;53.132;8.230;2024-02-26T12:13:12;100870.88;;;6.97;77.61
80401;BME280;69727;53.132;8.230;2024-02-26T12:18:20;100875.53;;;7.03;77.03
80401;BME280;69727;53.132;8.230;2024-02-26T12:20:46;100882.22;;;7.07;77.29
80401;BME280;69727;53.132;8.230;2024-02-26T12:23:15;100884.47;;;7.27;76.73
80401;BME280;69727;53.132;8.230;2024-02-26T12:25:43;100880.09;;;7.34;76.49
80401;BME280;69727;53.132;8.230;2024-02-26T12:28:09;100881.88;;;7.49;75.64
80401;BME280;69727;53.132;8.230;2024-02-26T12:30:34;100880.28;;;7.63;75.41
80401;BME280;69727;53.132;8.230;2024-02-26T12:33:00;100877.25;;;7.66;75.51
80401;BME280;69727;53.132;8.230;2024-02-26T12:35:29;100884.22;;;7.75;75.35
80401;BME280;69727;53.132;8.230;2024-02-26T12:37:58;100888.03;;;7.81;74.69
80401;BME280;69727;53.132;8.230;2024-02-26T12:40:23;100888.03;;;7.81;74.74
80401;BME280;69727;53.132;8.230;2024-02-26T12:42:49;100891.84;;;7.86;75.03
80401;BME280;69727;53.132;8.230;2024-02-26T12:45:15;100890.69;;;7.81;74.64
80401;BME280;69727;53.132;8.230;2024-02-26T12:47:42;100885.53;;;7.79;74.16
80401;BME280;69727;53.132;8.230;2024-02-26T12:50:09;100889.19;;;7.78;74.69
80401;BME280;69727;53.132;8.230;2024-02-26T12:52:36;100893.25;;;7.74;74.67
80401;BME280;69727;53.132;8.230;2024-02-26T12:55:03;100896.13;;;7.65;74.33
80401;BME280;69727;53.132;8.230;2024-02-26T12:57:32;100896.19;;;7.57;75.43
80401;BME280;69727;53.132;8.230;2024-02-26T12:59:59;100896.34;;;7.63;75.86